This is the latest recevied weather packets stored in our database for station/object MM0ZFG-5. If no packets are shown the sender has not sent any weather packets the latest 10 day(s).
| Time | Temp. | Humidity | Pressure | Rain* | Wind** | Luminosity | Snow |
|---|---|---|---|---|---|---|---|
| 1777940286 | 8.33° C | 83% | 1011.6 hPa | 0 mm | - | - | - |
| 1777939226 | 8.33° C | 83% | 1011.8 hPa | 0 mm | - | - | - |
| 1777937224 | 8.33° C | 82% | 1011.7 hPa | 0 mm | - | - | - |
| 1777930564 | 8.89° C | 79% | 1012 hPa | 0 mm | - | - | - |
| 1777930025 | 8.89° C | 79% | 1012 hPa | 0 mm | - | - | - |
| 1777928944 | 8.89° C | 78% | 1012.1 hPa | 0 mm | - | - | - |
| 1777926425 | 9.44° C | 75% | 1012.2 hPa | 0 mm | - | - | - |
| 1777923904 | 10° C | 72% | 1012.1 hPa | 0 mm | - | - | - |
| 1777921204 | 10.56° C | 71% | 1011.7 hPa | 0 mm | - | - | - |
| 1777919224 | 11.11° C | 68% | 1011.8 hPa | 0 mm | - | - | - |
| 1777918684 | 11.11° C | 67% | 1011.9 hPa | 0 mm | - | - | - |
| 1777917245 | 11.67° C | 65% | 1011.9 hPa | 0 mm | - | - | - |
| 1777916164 | 12.22° C | 63% | 1012.1 hPa | 0 mm | - | - | - |
| 1777915083 | 13.33° C | 61% | 1011.9 hPa | 0 mm | - | - | - |
| 1777912565 | 15° C | 58% | 1012.1 hPa | 0 mm | - | - | - |
| 1777910945 | 12.22° C | 65% | 1012.1 hPa | 0 mm | - | - | - |
| 1777906444 | 14.44° C | 58% | 1012.5 hPa | 0 mm | - | - | - |
| 1777905904 | 14.44° C | 60% | 1012.3 hPa | 0 mm | - | - | - |
| 1777902324 | 12.78° C | 61% | 1012.2 hPa | 0 mm | - | - | - |
| 1777890423 | 11.11° C | 64% | 1012 hPa | 0 mm | - | - | - |
| 1777881605 | 7.78° C | 76% | 1012.2 hPa | 0 mm | - | - | - |
| 1777878005 | 6.67° C | 82% | 1011.8 hPa | 0 mm | - | - | - |
| 1777876564 | 6.11° C | 87% | 1011.5 hPa | 0 mm | - | - | - |
| 1777876025 | 6.11° C | 90% | 1011.5 hPa | 0 mm | - | - | - |
| 1777874403 | 5.56° C | 89% | 1011.6 hPa | 0 mm | - | - | - |
* Rain latest hour (hover to see other rain measurements)
** Current wind speed in m/s (hover to see current wind gust speed)